createdAt,value
2017-03-17T00:00:36.064Z,8.38
2017-03-17T00:01:16.563Z,8.3
2017-03-17T00:01:57.067Z,8.3
2017-03-17T00:02:37.550Z,8.33
2017-03-17T00:03:18.083Z,8.23
2017-03-17T00:03:58.629Z,8.23
2017-03-17T00:04:39.100Z,8.24
2017-03-17T00:05:19.579Z,8.23
2017-03-17T00:06:00.100Z,8.27
2017-03-17T00:06:40.562Z,8.2
2017-03-17T00:07:21.048Z,8.18
2017-03-17T00:08:01.630Z,8.19
2017-03-17T00:08:42.112Z,8.2
2017-03-17T00:09:22.618Z,8.2
2017-03-17T00:10:03.104Z,8.15
2017-03-17T00:10:43.614Z,8.1
2017-03-17T00:11:24.135Z,8.2
2017-03-17T00:12:04.597Z,8.15
2017-03-17T00:12:45.124Z,8.16
2017-03-17T00:13:25.628Z,8.13
2017-03-17T00:14:06.129Z,8.13
2017-03-17T00:14:46.655Z,8.09
2017-03-17T00:15:27.185Z,8.09
2017-03-17T00:16:07.691Z,8.1
2017-03-17T00:16:48.140Z,8.06
2017-03-17T00:17:28.691Z,8.09
2017-03-17T00:18:09.164Z,8.13
2017-03-17T00:18:49.695Z,8.12
2017-03-17T00:19:30.141Z,8.1
2017-03-17T00:20:10.634Z,8.1
2017-03-17T00:20:51.157Z,8.12
2017-03-17T00:21:31.630Z,8.08
2017-03-17T00:22:12.139Z,8.08
2017-03-17T00:22:52.596Z,8.1
2017-03-17T00:23:33.152Z,8.08
2017-03-17T00:24:13.704Z,8.12
2017-03-17T00:24:54.137Z,8.12
2017-03-17T00:25:34.695Z,8.09
2017-03-17T00:26:15.136Z,8.06
2017-03-17T00:26:55.704Z,8.09
2017-03-17T00:27:36.137Z,8.1
2017-03-17T00:28:16.621Z,8.09
2017-03-17T00:28:57.110Z,8.08
2017-03-17T00:29:37.593Z,8.09
2017-03-17T00:30:18.101Z,8.01
2017-03-17T00:30:58.627Z,8.03
2017-03-17T00:31:39.117Z,8.08
2017-03-17T00:32:19.620Z,8.01
2017-03-17T00:33:00.081Z,8.03
2017-03-17T00:33:40.571Z,8.05
2017-03-17T00:34:21.069Z,8.01
2017-03-17T00:35:01.546Z,8.08
2017-03-17T00:35:42.044Z,8.03
2017-03-17T00:36:22.530Z,8.06
2017-03-17T00:37:03.072Z,8.05
2017-03-17T00:37:43.562Z,8
2017-03-17T00:38:24.105Z,8.06
2017-03-17T00:39:04.607Z,8.01
2017-03-17T00:39:45.067Z,8.03
2017-03-17T00:40:25.607Z,8.03
2017-03-17T00:41:06.059Z,8.06
2017-03-17T00:41:46.564Z,8.03
2017-03-17T00:42:27.068Z,8.03
2017-03-17T00:43:07.576Z,7.95
2017-03-17T00:43:48.122Z,8.03
2017-03-17T00:44:28.557Z,8
2017-03-17T00:45:09.054Z,8
2017-03-17T00:45:49.569Z,8
2017-03-17T00:46:30.039Z,7.98
2017-03-17T00:47:10.526Z,7.95
2017-03-17T00:47:51.066Z,8.05
2017-03-17T00:48:31.569Z,8.03
2017-03-17T00:49:12.080Z,8.01
2017-03-17T00:49:52.580Z,8.03
2017-03-17T00:50:33.015Z,8.06
2017-03-17T00:51:13.527Z,8
2017-03-17T00:51:54.015Z,8.03
2017-03-17T00:52:34.462Z,7.97
2017-03-17T00:53:14.955Z,8.03
2017-03-17T00:53:55.475Z,7.98
2017-03-17T00:54:35.946Z,8
2017-03-17T00:55:16.432Z,7.97
2017-03-17T00:55:56.917Z,8
2017-03-17T00:56:37.416Z,8.01
2017-03-17T00:57:17.962Z,7.95
2017-03-17T00:57:58.431Z,8.06
2017-03-17T00:58:38.884Z,7.98
2017-03-17T00:59:19.384Z,8.01
2017-03-17T00:59:59.888Z,7.91
2017-03-17T01:00:40.359Z,7.91
2017-03-17T01:01:20.853Z,8
2017-03-17T01:02:01.361Z,7.9
2017-03-17T01:02:41.823Z,7.97
2017-03-17T01:03:22.331Z,7.93
2017-03-17T01:04:02.825Z,7.91
2017-03-17T01:04:43.330Z,7.88
2017-03-17T01:05:23.809Z,7.9
2017-03-17T01:06:04.311Z,7.88
2017-03-17T01:06:44.833Z,8
2017-03-17T01:07:25.371Z,7.85
2017-03-17T01:08:05.900Z,7.95
2017-03-17T01:08:46.371Z,7.87
2017-03-17T01:09:26.845Z,7.93
2017-03-17T01:10:07.342Z,7.85
2017-03-17T01:10:47.833Z,7.87
2017-03-17T01:11:28.345Z,7.95
2017-03-17T01:12:08.816Z,7.98
2017-03-17T01:12:49.298Z,7.91
2017-03-17T01:13:29.788Z,7.88
2017-03-17T01:14:10.432Z,7.93
2017-03-17T01:14:51.054Z,7.91
2017-03-17T01:15:31.553Z,7.95
2017-03-17T01:16:12.046Z,7.9
2017-03-17T01:16:52.557Z,8.01
2017-03-17T01:17:33.060Z,7.94
2017-03-17T01:18:13.528Z,7.97
2017-03-17T01:18:54.004Z,7.82
2017-03-17T01:19:34.496Z,7.83
2017-03-17T01:20:15.022Z,7.79
2017-03-17T01:20:55.483Z,7.83
2017-03-17T01:21:36.065Z,7.8
2017-03-17T01:22:16.555Z,7.82
2017-03-17T01:22:57.035Z,7.83
2017-03-17T01:23:37.512Z,7.85
2017-03-17T01:24:18.051Z,7.82
2017-03-17T01:24:58.534Z,7.77
2017-03-17T01:25:39.017Z,7.76
2017-03-17T01:26:19.500Z,7.82
2017-03-17T01:27:00.011Z,7.73
2017-03-17T01:27:40.504Z,7.7
2017-03-17T01:28:21.015Z,7.7
2017-03-17T01:29:01.527Z,7.75
2017-03-17T01:29:42.016Z,7.69
2017-03-17T01:30:22.474Z,7.66
2017-03-17T01:31:02.985Z,7.72
2017-03-17T01:31:43.436Z,7.67
2017-03-17T01:32:23.992Z,7.61
2017-03-17T01:33:04.437Z,7.6
2017-03-17T01:33:44.919Z,7.63
2017-03-17T01:34:25.391Z,7.6
2017-03-17T01:35:05.902Z,7.67
2017-03-17T01:35:46.355Z,7.61
2017-03-17T01:36:26.881Z,7.5
2017-03-17T01:37:07.406Z,7.54
2017-03-17T01:37:47.874Z,7.57
2017-03-17T01:38:28.377Z,7.5
2017-03-17T01:39:08.848Z,7.51
2017-03-17T01:39:49.333Z,7.43
2017-03-17T01:40:29.862Z,7.47
2017-03-17T01:41:13.223Z,7.48
2017-03-17T01:41:53.719Z,7.47
2017-03-17T01:42:34.219Z,7.42
2017-03-17T01:43:14.697Z,7.5
2017-03-17T01:43:55.172Z,7.45
2017-03-17T01:44:35.678Z,7.43
2017-03-17T01:45:16.186Z,7.45
2017-03-17T01:45:56.655Z,7.5
2017-03-17T01:46:37.180Z,7.43
2017-03-17T01:47:17.612Z,7.38
2017-03-17T01:47:58.122Z,7.39
2017-03-17T01:48:38.609Z,7.43
2017-03-17T01:49:19.097Z,7.35
2017-03-17T01:49:59.572Z,7.39
2017-03-17T01:50:40.060Z,7.43
2017-03-17T01:51:20.555Z,7.38
2017-03-17T01:52:01.052Z,7.4
2017-03-17T01:52:41.491Z,7.39
2017-03-17T01:53:21.971Z,7.47
2017-03-17T01:54:02.459Z,7.42
2017-03-17T01:54:42.954Z,7.4
2017-03-17T01:55:23.427Z,7.42
2017-03-17T01:56:03.925Z,7.4
2017-03-17T01:56:44.405Z,7.39
2017-03-17T01:57:24.887Z,7.42
2017-03-17T01:58:05.394Z,7.38
2017-03-17T01:58:45.887Z,7.4
2017-03-17T01:59:26.387Z,7.39
2017-03-17T02:00:06.865Z,7.43
2017-03-17T02:00:47.372Z,7.42
2017-03-17T02:01:27.907Z,7.4
2017-03-17T02:02:08.338Z,7.36
2017-03-17T02:02:48.883Z,7.38
2017-03-17T02:03:29.399Z,7.38
2017-03-17T02:04:09.886Z,7.32
2017-03-17T02:04:50.408Z,7.4
2017-03-17T02:05:30.938Z,7.31
2017-03-17T02:06:11.373Z,7.28
2017-03-17T02:06:51.861Z,7.31
2017-03-17T02:07:32.325Z,7.25
2017-03-17T02:08:12.837Z,7.31
2017-03-17T02:08:53.300Z,7.25
2017-03-17T02:09:33.797Z,7.36
2017-03-17T02:10:14.331Z,7.35
2017-03-17T02:10:54.827Z,7.25
2017-03-17T02:11:35.280Z,7.25
2017-03-17T02:12:15.776Z,7.31
2017-03-17T02:12:56.247Z,7.25
2017-03-17T02:13:36.760Z,7.28
2017-03-17T02:14:17.253Z,7.28
2017-03-17T02:14:57.739Z,7.25
2017-03-17T02:15:38.237Z,7.32
2017-03-17T02:16:18.766Z,7.29
2017-03-17T02:16:59.201Z,7.35
2017-03-17T02:17:39.687Z,7.28
2017-03-17T02:18:20.241Z,7.25
2017-03-17T02:19:00.690Z,7.32
2017-03-17T02:19:41.169Z,7.31
2017-03-17T02:20:21.657Z,7.29
2017-03-17T02:21:02.163Z,7.28
2017-03-17T02:21:42.700Z,7.23
2017-03-17T02:22:23.184Z,7.32
2017-03-17T02:23:03.639Z,7.31
2017-03-17T02:23:44.186Z,7.28
2017-03-17T02:24:24.666Z,7.28
2017-03-17T02:25:05.166Z,7.31
2017-03-17T02:25:45.691Z,7.25
2017-03-17T02:26:26.162Z,7.29
2017-03-17T02:27:06.664Z,7.32
2017-03-17T02:27:47.141Z,7.29
2017-03-17T02:28:27.634Z,7.28
2017-03-17T02:29:08.113Z,7.25
2017-03-17T02:29:48.599Z,7.24
2017-03-17T02:30:29.078Z,7.25
2017-03-17T02:31:09.606Z,7.23
2017-03-17T02:31:50.081Z,7.28
2017-03-17T02:32:30.600Z,7.29
2017-03-17T02:33:11.099Z,7.28
2017-03-17T02:33:51.585Z,7.33
2017-03-17T02:34:32.062Z,7.36
2017-03-17T02:35:12.526Z,7.33
2017-03-17T02:35:52.988Z,7.28
2017-03-17T02:36:33.500Z,7.28
2017-03-17T02:37:13.992Z,7.24
2017-03-17T02:37:54.490Z,7.24
2017-03-17T02:38:34.975Z,7.15
2017-03-17T02:39:15.462Z,7.1
2017-03-17T02:39:55.971Z,7.15
2017-03-17T02:40:36.437Z,7.14
2017-03-17T02:41:16.947Z,7.18
2017-03-17T02:41:57.435Z,7.13
2017-03-17T02:42:37.963Z,7.14
2017-03-17T02:43:18.464Z,7.17
2017-03-17T02:43:58.991Z,7.11
2017-03-17T02:44:39.490Z,7.15
2017-03-17T02:45:19.975Z,7.15
2017-03-17T02:46:00.539Z,7.11
2017-03-17T02:46:41.565Z,7.15
2017-03-17T02:47:22.049Z,7.18
2017-03-17T02:48:02.550Z,7.11
2017-03-17T02:48:43.009Z,7.13
2017-03-17T02:49:23.492Z,7.15
2017-03-17T02:50:04.002Z,7.14
2017-03-17T02:50:44.459Z,7
2017-03-17T02:51:24.992Z,7.14
2017-03-17T02:52:05.434Z,7.14
2017-03-17T02:52:45.944Z,7.13
2017-03-17T02:53:26.467Z,7.1
2017-03-17T02:54:06.932Z,7.11
2017-03-17T02:54:47.459Z,7.03
2017-03-17T02:55:27.916Z,7.11
2017-03-17T02:56:08.420Z,7.1
2017-03-17T02:56:48.938Z,7.14
2017-03-17T02:57:29.403Z,7.1
2017-03-17T02:58:09.900Z,7.03
2017-03-17T02:58:50.436Z,7.07
2017-03-17T02:59:30.920Z,7.1
2017-03-17T03:00:11.379Z,7
2017-03-17T03:00:51.885Z,6.99
2017-03-17T03:01:32.394Z,7.02
2017-03-17T03:02:12.853Z,7.11
2017-03-17T03:02:53.347Z,6.99
2017-03-17T03:03:33.809Z,7
2017-03-17T03:04:14.272Z,6.99
2017-03-17T03:04:54.753Z,6.99
2017-03-17T03:05:35.251Z,7
2017-03-17T03:06:15.823Z,7.13
2017-03-17T03:06:56.330Z,7.11
2017-03-17T03:07:36.815Z,7.07
2017-03-17T03:08:17.333Z,7.1
2017-03-17T03:08:57.825Z,7.02
2017-03-17T03:09:38.328Z,7.02
2017-03-17T03:10:18.804Z,7.05
2017-03-17T03:10:59.273Z,7.14
2017-03-17T03:11:39.782Z,7.1
2017-03-17T03:12:20.290Z,6.99
2017-03-17T03:13:00.787Z,7.05
2017-03-17T03:13:41.261Z,6.99
2017-03-17T03:14:21.791Z,7.11
2017-03-17T03:15:02.260Z,7.02
2017-03-17T03:15:42.733Z,7.03
2017-03-17T03:16:23.260Z,7.02
2017-03-17T03:17:03.765Z,7
2017-03-17T03:17:44.223Z,6.96
2017-03-17T03:18:24.713Z,7
2017-03-17T03:19:05.221Z,7.06
2017-03-17T03:19:45.697Z,7
2017-03-17T03:20:26.166Z,6.97
2017-03-17T03:21:06.701Z,7.03
2017-03-17T03:21:47.172Z,7
2017-03-17T03:22:27.634Z,6.96
2017-03-17T03:23:08.120Z,7.02
2017-03-17T03:23:48.658Z,6.99
2017-03-17T03:24:29.126Z,7.03
2017-03-17T03:25:09.617Z,6.96
2017-03-17T03:25:50.114Z,7.03
2017-03-17T03:26:30.604Z,6.92
2017-03-17T03:27:11.111Z,7
2017-03-17T03:27:51.577Z,6.93
2017-03-17T03:28:32.072Z,6.96
2017-03-17T03:29:12.563Z,6.93
2017-03-17T03:29:53.077Z,6.89
2017-03-17T03:30:33.578Z,6.87
2017-03-17T03:31:14.092Z,6.88
2017-03-17T03:31:54.573Z,7
2017-03-17T03:32:35.038Z,6.89
2017-03-17T03:33:15.521Z,6.92
2017-03-17T03:33:56.015Z,6.87
2017-03-17T03:34:36.491Z,6.93
2017-03-17T03:35:17.019Z,6.88
2017-03-17T03:35:57.490Z,6.93
2017-03-17T03:36:37.958Z,6.82
2017-03-17T03:37:18.478Z,6.92
2017-03-17T03:37:58.902Z,6.89
2017-03-17T03:38:39.390Z,6.84
2017-03-17T03:39:19.863Z,6.89
2017-03-17T03:40:00.371Z,6.81
2017-03-17T03:40:40.853Z,6.97
2017-03-17T03:41:21.344Z,6.92
2017-03-17T03:42:01.832Z,6.92
2017-03-17T03:42:42.285Z,6.85
2017-03-17T03:43:22.775Z,6.85
2017-03-17T03:44:03.271Z,6.82
2017-03-17T03:44:43.765Z,6.82
2017-03-17T03:45:24.241Z,6.93
2017-03-17T03:46:04.742Z,6.92
2017-03-17T03:46:45.208Z,6.87
2017-03-17T03:47:25.735Z,6.89
2017-03-17T03:48:06.195Z,6.87
2017-03-17T03:48:46.683Z,6.89
2017-03-17T03:49:27.215Z,6.87
2017-03-17T03:50:07.649Z,6.82
2017-03-17T03:50:48.149Z,6.82
2017-03-17T03:51:28.649Z,6.84
2017-03-17T03:52:09.170Z,6.79
2017-03-17T03:52:49.653Z,6.79
2017-03-17T03:53:30.157Z,6.84
2017-03-17T03:54:10.616Z,6.87
2017-03-17T03:54:51.138Z,6.85
2017-03-17T03:55:31.621Z,6.85
2017-03-17T03:56:12.120Z,6.79
2017-03-17T03:56:52.617Z,6.74
2017-03-17T03:57:33.043Z,6.78
2017-03-17T03:58:13.544Z,6.77
2017-03-17T03:58:54.013Z,6.77
2017-03-17T03:59:34.540Z,6.75
2017-03-17T04:00:15.001Z,6.74
2017-03-17T04:00:55.533Z,6.81
2017-03-17T04:01:36.019Z,6.82
2017-03-17T04:02:16.473Z,6.75
2017-03-17T04:02:56.974Z,6.75
2017-03-17T04:03:37.468Z,6.7
2017-03-17T04:04:17.963Z,6.75
2017-03-17T04:04:58.461Z,6.69
2017-03-17T04:05:38.976Z,6.72
2017-03-17T04:06:19.451Z,6.69
2017-03-17T04:06:59.940Z,6.77
2017-03-17T04:07:40.453Z,6.75
2017-03-17T04:08:21.016Z,6.74
2017-03-17T04:09:01.492Z,6.74
2017-03-17T04:09:41.956Z,6.72
2017-03-17T04:10:22.437Z,6.75
2017-03-17T04:11:02.928Z,6.66
2017-03-17T04:11:43.400Z,6.72
2017-03-17T04:12:23.921Z,6.7
2017-03-17T04:13:04.371Z,6.62
2017-03-17T04:13:47.726Z,6.63
2017-03-17T04:14:28.232Z,6.62
2017-03-17T04:15:08.748Z,6.6
2017-03-17T04:15:49.228Z,6.62
2017-03-17T04:16:29.726Z,6.62
2017-03-17T04:17:10.209Z,6.64
2017-03-17T04:17:50.688Z,6.74
2017-03-17T04:18:31.221Z,6.67
2017-03-17T04:19:11.664Z,6.6
2017-03-17T04:19:52.170Z,6.6
2017-03-17T04:20:32.638Z,6.59
2017-03-17T04:21:13.143Z,6.6
2017-03-17T04:21:53.649Z,6.54
2017-03-17T04:22:34.118Z,6.57
2017-03-17T04:23:14.604Z,6.6
2017-03-17T04:23:55.136Z,6.54
2017-03-17T04:24:35.588Z,6.56
2017-03-17T04:25:16.101Z,6.59
2017-03-17T04:25:56.562Z,6.56
2017-03-17T04:26:37.047Z,6.57
2017-03-17T04:27:17.587Z,6.54
2017-03-17T04:27:58.097Z,6.51
2017-03-17T04:28:38.566Z,6.54
2017-03-17T04:29:19.068Z,6.54
2017-03-17T04:29:59.529Z,6.56
2017-03-17T04:30:40.064Z,6.51
2017-03-17T04:31:20.555Z,6.54
2017-03-17T04:32:01.036Z,6.49
2017-03-17T04:32:41.508Z,6.46
2017-03-17T04:33:22.036Z,6.44
2017-03-17T04:34:02.485Z,6.41
2017-03-17T04:34:42.973Z,6.36
2017-03-17T04:35:23.476Z,6.27
2017-03-17T04:36:04.017Z,6.31
2017-03-17T04:36:44.497Z,6.28
2017-03-17T04:37:24.995Z,6.26
2017-03-17T04:38:05.492Z,6.3
2017-03-17T04:38:46.001Z,6.33
2017-03-17T04:39:26.472Z,6.3
2017-03-17T04:40:06.945Z,6.27
2017-03-17T04:40:47.449Z,6.26
2017-03-17T04:41:27.914Z,6.17
2017-03-17T04:42:08.396Z,6.2
2017-03-17T04:42:48.885Z,6.14
2017-03-17T04:43:29.355Z,6.17
2017-03-17T04:44:09.844Z,6.09
2017-03-17T04:44:50.373Z,6.08
2017-03-17T04:45:30.864Z,6.07
2017-03-17T04:46:11.349Z,6.08
2017-03-17T04:46:51.885Z,6.07
2017-03-17T04:47:32.328Z,6.09
2017-03-17T04:48:12.842Z,5.98
2017-03-17T04:48:53.322Z,5.91
2017-03-17T04:49:33.830Z,5.9
2017-03-17T04:50:14.367Z,5.9
2017-03-17T04:50:54.796Z,5.93
2017-03-17T04:51:35.331Z,5.93
2017-03-17T04:52:15.944Z,5.98
2017-03-17T04:52:56.292Z,5.91
2017-03-17T04:53:36.788Z,5.93
2017-03-17T04:54:17.322Z,5.9
2017-03-17T04:54:57.812Z,5.84
2017-03-17T04:55:38.292Z,5.87
2017-03-17T04:56:18.776Z,5.91
2017-03-17T04:56:59.255Z,5.93
2017-03-17T04:57:39.786Z,5.82
2017-03-17T04:58:20.228Z,5.9
2017-03-17T04:59:00.696Z,5.84
2017-03-17T04:59:41.207Z,5.73
2017-03-17T05:00:21.685Z,5.76
2017-03-17T05:01:02.200Z,5.73
2017-03-17T05:01:42.701Z,5.76
2017-03-17T05:02:23.220Z,5.75
2017-03-17T05:03:03.714Z,5.73
2017-03-17T05:03:44.231Z,5.72
2017-03-17T05:04:24.717Z,5.8
2017-03-17T05:05:05.196Z,5.69
2017-03-17T05:05:45.705Z,5.75
2017-03-17T05:06:26.202Z,5.69
2017-03-17T05:07:06.727Z,5.69
2017-03-17T05:07:47.357Z,5.75
2017-03-17T05:08:27.866Z,5.64
2017-03-17T05:09:08.372Z,5.73
2017-03-17T05:09:48.977Z,5.64
2017-03-17T05:10:29.624Z,5.66
2017-03-17T05:11:10.208Z,5.62
2017-03-17T05:11:50.720Z,5.61
2017-03-17T05:12:31.272Z,5.64
2017-03-17T05:13:11.793Z,5.59
2017-03-17T05:13:52.274Z,5.61
2017-03-17T05:14:32.783Z,5.62
2017-03-17T05:15:13.283Z,5.64
2017-03-17T05:15:53.744Z,5.62
2017-03-17T05:16:34.363Z,5.66
2017-03-17T05:17:14.909Z,5.64
2017-03-17T05:17:55.392Z,5.51
2017-03-17T05:18:35.924Z,5.57
2017-03-17T05:19:16.430Z,5.53
2017-03-17T05:19:56.973Z,5.62
2017-03-17T05:20:37.478Z,5.59
2017-03-17T05:21:18.046Z,5.57
2017-03-17T05:22:05.356Z,5.61
2017-03-17T05:22:45.839Z,5.51
2017-03-17T05:23:26.342Z,5.53
2017-03-17T05:24:06.879Z,5.53
2017-03-17T05:24:47.367Z,5.51
2017-03-17T05:25:27.858Z,5.43
2017-03-17T05:26:08.359Z,5.56
2017-03-17T05:26:48.930Z,5.56
2017-03-17T05:27:29.418Z,5.5
2017-03-17T05:28:09.936Z,5.53
2017-03-17T05:28:50.445Z,5.5
2017-03-17T05:29:30.911Z,5.61
2017-03-17T05:30:11.462Z,5.54
2017-03-17T05:30:51.940Z,5.61
2017-03-17T05:31:32.445Z,5.59
2017-03-17T05:32:12.978Z,5.65
2017-03-17T05:32:53.478Z,5.51
2017-03-17T05:33:33.986Z,5.51
2017-03-17T05:34:14.451Z,5.53
2017-03-17T05:34:54.941Z,5.5
2017-03-17T05:35:35.437Z,5.57
2017-03-17T05:36:16.042Z,5.57
2017-03-17T05:36:56.579Z,5.48
2017-03-17T05:37:37.132Z,5.54
2017-03-17T05:38:17.602Z,5.51
2017-03-17T05:38:58.121Z,5.57
2017-03-17T05:39:38.644Z,5.5
2017-03-17T05:40:19.160Z,5.53
2017-03-17T05:40:59.662Z,5.5
2017-03-17T05:41:40.127Z,5.51
2017-03-17T05:42:20.635Z,5.5
2017-03-17T05:43:01.121Z,5.51
2017-03-17T05:43:41.627Z,5.51
2017-03-17T05:44:22.109Z,5.54
2017-03-17T05:45:02.601Z,5.44
2017-03-17T05:45:43.077Z,5.51
2017-03-17T05:46:23.549Z,5.53
2017-03-17T05:47:04.066Z,5.47
2017-03-17T05:47:44.544Z,5.56
2017-03-17T05:48:25.076Z,5.54
2017-03-17T05:49:05.528Z,5.51
2017-03-17T05:49:46.021Z,5.51
2017-03-17T05:50:26.532Z,5.5
2017-03-17T05:51:07.029Z,5.61
2017-03-17T05:51:47.533Z,5.51
2017-03-17T05:52:27.982Z,5.51
2017-03-17T05:53:08.480Z,5.54
2017-03-17T05:53:49.049Z,5.53
2017-03-17T05:54:29.502Z,5.47
2017-03-17T05:55:09.958Z,5.47
2017-03-17T05:55:50.439Z,5.51
2017-03-17T05:56:30.960Z,5.61
2017-03-17T05:57:11.507Z,5.61
2017-03-17T05:57:51.982Z,5.62
2017-03-17T05:58:32.444Z,5.61
2017-03-17T05:59:12.939Z,5.53
2017-03-17T05:59:53.473Z,5.54
2017-03-17T06:00:33.959Z,5.51
2017-03-17T06:01:14.457Z,5.65
2017-03-17T06:01:54.977Z,5.56
2017-03-17T06:02:35.478Z,5.57
2017-03-17T06:03:15.958Z,5.64
2017-03-17T06:03:56.501Z,5.59
2017-03-17T06:04:36.989Z,5.53
2017-03-17T06:05:17.453Z,5.56
2017-03-17T06:05:58.017Z,5.59
2017-03-17T06:06:38.475Z,5.51
2017-03-17T06:07:19.046Z,5.56
2017-03-17T06:07:59.564Z,5.54
2017-03-17T06:08:40.109Z,5.59
2017-03-17T06:09:20.707Z,5.62
2017-03-17T06:10:01.216Z,5.61
2017-03-17T06:10:41.738Z,5.61
2017-03-17T06:11:22.213Z,5.61
2017-03-17T06:12:02.728Z,5.59
2017-03-17T06:12:43.255Z,5.57
2017-03-17T06:13:23.713Z,5.62
2017-03-17T06:14:04.222Z,5.5
2017-03-17T06:14:44.728Z,5.64
2017-03-17T06:15:25.191Z,5.57
2017-03-17T06:16:05.706Z,5.56
2017-03-17T06:16:46.187Z,5.61
2017-03-17T06:17:26.693Z,5.64
2017-03-17T06:18:07.157Z,5.56
2017-03-17T06:18:47.682Z,5.61
2017-03-17T06:19:28.163Z,5.57
2017-03-17T06:20:08.686Z,5.64
2017-03-17T06:20:49.199Z,5.57
2017-03-17T06:21:29.721Z,5.66
2017-03-17T06:22:10.187Z,5.62
2017-03-17T06:22:50.700Z,5.69
2017-03-17T06:23:31.195Z,5.68
2017-03-17T06:24:11.711Z,5.61
2017-03-17T06:24:52.242Z,5.59
2017-03-17T06:25:32.713Z,5.64
2017-03-17T06:26:13.203Z,5.62
2017-03-17T06:26:53.714Z,5.61
2017-03-17T06:27:34.259Z,5.61
2017-03-17T06:28:14.789Z,5.62
2017-03-17T06:28:55.363Z,5.61
2017-03-17T06:29:35.909Z,5.66
2017-03-17T06:30:16.463Z,5.73
2017-03-17T06:30:56.939Z,5.79
2017-03-17T06:31:37.432Z,5.69
2017-03-17T06:32:17.913Z,5.8
2017-03-17T06:32:58.433Z,5.76
2017-03-17T06:33:38.938Z,5.69
2017-03-17T06:34:19.491Z,5.76
2017-03-17T06:34:59.949Z,5.72
2017-03-17T06:35:40.427Z,5.71
2017-03-17T06:36:20.945Z,5.83
2017-03-17T06:37:01.465Z,5.79
2017-03-17T06:37:41.928Z,5.8
2017-03-17T06:38:22.423Z,5.75
2017-03-17T06:39:02.919Z,5.82
2017-03-17T06:39:43.398Z,5.84
2017-03-17T06:40:23.946Z,5.86
2017-03-17T06:41:04.400Z,5.97
2017-03-17T06:41:44.975Z,5.93
2017-03-17T06:42:25.461Z,5.9
2017-03-17T06:43:06.009Z,5.93
2017-03-17T06:43:46.484Z,6.01
2017-03-17T06:44:27.010Z,6.02
2017-03-17T06:45:07.454Z,6.01
2017-03-17T06:45:48.019Z,6.09
2017-03-17T06:46:28.480Z,6.05
2017-03-17T06:47:09.004Z,6.09
2017-03-17T06:47:52.298Z,6.02
2017-03-17T06:48:32.746Z,6.02
2017-03-17T06:49:13.243Z,6.19
2017-03-17T06:49:53.738Z,6.24
2017-03-17T06:50:34.338Z,6.12
2017-03-17T06:51:14.761Z,6.17
2017-03-17T06:51:55.263Z,6.19
2017-03-17T06:52:35.750Z,6.27
2017-03-17T06:53:16.302Z,6.19
2017-03-17T06:53:56.855Z,6.24
2017-03-17T06:54:37.373Z,6.24
2017-03-17T06:55:17.913Z,6.35
2017-03-17T06:55:58.436Z,6.26
2017-03-17T06:56:38.981Z,6.31
2017-03-17T06:57:19.501Z,6.35
2017-03-17T06:58:00.003Z,6.36
2017-03-17T06:58:40.490Z,6.42
2017-03-17T06:59:20.962Z,6.56
2017-03-17T07:00:01.494Z,6.54
2017-03-17T07:00:41.944Z,6.51
2017-03-17T07:01:22.427Z,6.52
2017-03-17T07:02:02.944Z,6.64
2017-03-17T07:02:43.477Z,6.67
2017-03-17T07:03:24.799Z,6.64
2017-03-17T07:04:05.241Z,6.66
2017-03-17T07:04:45.751Z,6.69
2017-03-17T07:05:26.219Z,6.67
2017-03-17T07:06:06.750Z,6.79
2017-03-17T07:06:47.223Z,6.79
2017-03-17T07:07:27.689Z,6.78
2017-03-17T07:08:08.233Z,6.87
2017-03-17T07:08:48.738Z,6.95
2017-03-17T07:09:29.298Z,6.84
2017-03-17T07:10:09.764Z,6.96
2017-03-17T07:10:50.324Z,6.89
2017-03-17T07:11:30.857Z,6.97
2017-03-17T07:12:11.359Z,6.97
2017-03-17T07:12:51.888Z,7.05
2017-03-17T07:13:32.441Z,7.03
2017-03-17T07:14:12.943Z,7
2017-03-17T07:14:53.436Z,7.11
2017-03-17T07:15:33.952Z,7
2017-03-17T07:16:14.491Z,7.15
2017-03-17T07:16:55.035Z,7.14
2017-03-17T07:17:35.507Z,7.24
2017-03-17T07:18:16.230Z,7.24
2017-03-17T07:18:56.782Z,7.24
2017-03-17T07:19:37.257Z,7.35
2017-03-17T07:20:17.803Z,7.4
2017-03-17T07:20:58.265Z,7.42
2017-03-17T07:21:38.775Z,7.39
2017-03-17T07:22:19.348Z,7.4
2017-03-17T07:22:59.826Z,7.28
2017-03-17T07:23:40.339Z,7.25
2017-03-17T07:24:20.854Z,7.29
2017-03-17T07:25:01.372Z,7.24
2017-03-17T07:25:41.844Z,7.25
2017-03-17T07:26:22.406Z,7.25
2017-03-17T07:27:02.893Z,7.17
2017-03-17T07:27:43.381Z,7.21
2017-03-17T07:28:23.895Z,7.28
2017-03-17T07:29:04.374Z,7.14
2017-03-17T07:29:44.917Z,7.05
2017-03-17T07:30:26.097Z,7.1
2017-03-17T07:31:06.388Z,7.18
2017-03-17T07:31:46.869Z,7.11
2017-03-17T07:32:27.395Z,7.2
2017-03-17T07:33:07.935Z,7.14
2017-03-17T07:33:48.494Z,7.17
2017-03-17T07:34:28.987Z,7.1
2017-03-17T07:35:09.509Z,7.11
2017-03-17T07:35:49.971Z,7
2017-03-17T07:36:30.478Z,7.13
2017-03-17T07:37:10.973Z,6.99
2017-03-17T07:37:51.495Z,7
2017-03-17T07:38:31.967Z,7
2017-03-17T07:39:12.512Z,7.02
2017-03-17T07:39:52.979Z,6.95
2017-03-17T07:40:33.491Z,6.97
2017-03-17T07:41:15.968Z,6.93
2017-03-17T07:41:56.499Z,6.95
2017-03-17T07:42:37.021Z,7
2017-03-17T07:43:17.553Z,7
2017-03-17T07:43:58.169Z,6.92
2017-03-17T07:44:38.666Z,7
2017-03-17T07:45:20.325Z,6.99
2017-03-17T07:46:00.823Z,7.06
2017-03-17T07:46:41.422Z,7.13
2017-03-17T07:47:21.907Z,7.11
2017-03-17T07:48:02.403Z,7.17
2017-03-17T07:48:42.923Z,7.2
2017-03-17T07:49:23.384Z,7.1
2017-03-17T07:50:03.865Z,7.14
2017-03-17T07:50:44.430Z,7.15
2017-03-17T07:51:24.972Z,7.23
2017-03-17T07:52:05.469Z,7.31
2017-03-17T07:52:45.983Z,7.38
2017-03-17T07:53:26.473Z,7.45
2017-03-17T07:54:07.011Z,7.39
2017-03-17T07:54:47.531Z,7.35
2017-03-17T07:55:28.009Z,7.42
2017-03-17T07:56:08.622Z,7.45
2017-03-17T07:56:49.186Z,7.48
2017-03-17T07:57:29.631Z,7.48
2017-03-17T07:58:10.174Z,7.6
2017-03-17T07:58:50.767Z,7.63
2017-03-17T07:59:31.315Z,7.7
2017-03-17T08:00:11.931Z,7.6
2017-03-17T08:00:52.547Z,7.63
2017-03-17T08:01:33.056Z,7.69
2017-03-17T08:02:13.548Z,7.72
2017-03-17T08:02:54.778Z,7.77
2017-03-17T08:03:35.311Z,7.75
2017-03-17T08:04:15.913Z,7.7
2017-03-17T08:04:56.369Z,7.67
2017-03-17T08:05:36.902Z,7.53
2017-03-17T08:06:17.652Z,7.6
2017-03-17T08:06:58.216Z,7.51
2017-03-17T08:07:38.753Z,7.66
2017-03-17T08:08:19.829Z,7.67
2017-03-17T08:09:00.377Z,7.69
2017-03-17T08:09:40.901Z,7.66
2017-03-17T08:10:21.409Z,7.7
2017-03-17T08:11:02.710Z,7.57
2017-03-17T08:11:43.168Z,7.6
2017-03-17T08:12:28.188Z,7.6
2017-03-17T08:13:08.706Z,7.6
2017-03-17T08:13:49.227Z,7.58
2017-03-17T08:14:29.786Z,7.48
2017-03-17T08:15:10.398Z,7.39
2017-03-17T08:15:50.843Z,7.36
2017-03-17T08:16:31.461Z,7.33
2017-03-17T08:17:11.945Z,7.39
2017-03-17T08:17:58.347Z,7.36
2017-03-17T08:18:38.900Z,7.4
2017-03-17T08:19:19.429Z,7.36
2017-03-17T08:19:59.941Z,7.25
2017-03-17T08:20:40.420Z,7.25
2017-03-17T08:21:20.940Z,7.33
2017-03-17T08:22:01.503Z,7.25
2017-03-17T08:22:43.260Z,7.25
2017-03-17T08:23:23.735Z,7.29
2017-03-17T08:24:04.228Z,7.28
2017-03-17T08:24:44.757Z,7.25
2017-03-17T08:25:25.256Z,7.28
2017-03-17T08:26:05.763Z,7.32
2017-03-17T08:26:46.225Z,7.24
2017-03-17T08:27:26.754Z,7.31
2017-03-17T08:28:07.220Z,7.31
2017-03-17T08:28:47.729Z,7.31
2017-03-17T08:29:28.229Z,7.25
2017-03-17T08:30:08.792Z,7.25
2017-03-17T08:30:49.277Z,7.25
2017-03-17T08:31:29.880Z,7.38
2017-03-17T08:32:11.255Z,7.35
2017-03-17T08:32:51.938Z,7.36
2017-03-17T08:33:32.447Z,7.38
2017-03-17T08:34:12.975Z,7.29
2017-03-17T08:34:54.147Z,7.28
2017-03-17T08:35:34.839Z,7.4
2017-03-17T08:36:15.360Z,7.25
2017-03-17T08:36:56.140Z,7.25
2017-03-17T08:37:36.568Z,7.28
2017-03-17T08:38:17.019Z,7.24
2017-03-17T08:38:57.576Z,7.25
2017-03-17T08:39:38.073Z,7.31
2017-03-17T08:40:18.574Z,7.38
2017-03-17T08:40:59.059Z,7.24
2017-03-17T08:41:39.579Z,7.38
2017-03-17T08:42:20.118Z,7.28
2017-03-17T08:43:00.607Z,7.28
2017-03-17T08:43:41.153Z,7.21
2017-03-17T08:44:21.606Z,7.29
2017-03-17T08:45:02.146Z,7.25
2017-03-17T08:45:42.693Z,7.18
2017-03-17T08:46:23.205Z,7.31
2017-03-17T08:47:03.705Z,7.24
2017-03-17T08:47:44.195Z,7.35
2017-03-17T08:48:24.873Z,7.35
2017-03-17T08:49:05.450Z,7.36
2017-03-17T08:49:45.984Z,7.36
2017-03-17T08:50:26.536Z,7.42
2017-03-17T08:51:07.053Z,7.43
2017-03-17T08:51:47.523Z,7.39
2017-03-17T08:52:28.075Z,7.4
2017-03-17T08:53:08.519Z,7.33
2017-03-17T08:53:48.999Z,7.36
2017-03-17T08:54:29.511Z,7.38
2017-03-17T08:55:09.990Z,7.42
2017-03-17T08:55:50.516Z,7.4
2017-03-17T08:56:31.006Z,7.4
2017-03-17T08:57:11.523Z,7.4
2017-03-17T08:57:52.056Z,7.45
2017-03-17T08:58:32.541Z,7.42
2017-03-17T08:59:13.030Z,7.36
2017-03-17T08:59:53.612Z,7.4
2017-03-17T09:00:35.982Z,7.28
2017-03-17T09:01:16.470Z,7.25
2017-03-17T09:01:56.959Z,7.23
2017-03-17T09:02:38.026Z,7.35
2017-03-17T09:03:18.573Z,7.31
2017-03-17T09:03:59.055Z,7.32